Time;durP1;ratioP1;P1;durP2;ratioP2;P2;SDS_P1;SDS_P2;PMS_P1;PMS_P2;Temp;Humidity;BMP_temperature;BMP_pressure;BME280_temperature;BME280_humidity;BME280_pressure;Samples;Min_cycle;Max_cycle;Signal;HPM_P1;HPM_P2
2021/01/06 00:00:53;;;;;;;;;33.00;32.00;;;;;5.34;70.98;101608.44;4375011;32;12391;-79
2021/01/06 00:03:49;;;;;;;;;32.50;31.75;;;;;5.41;71.01;101612.56;4374145;32;12418;-79
2021/01/06 00:06:30;;;;;;;;;31.00;27.00;;;;;5.33;71.27;101606.81;4360347;32;12442;-79
2021/01/06 00:09:26;;;;;;;;;24.75;24.75;;;;;5.32;71.48;101599.69;4361065;32;12427;-79
2021/01/06 00:12:23;;;;;;;;;34.00;27.00;;;;;5.43;71.45;101615.03;4359576;33;12508;-79
2021/01/06 00:15:24;;;;;;;;;32.75;31.75;;;;;5.63;70.61;101620.53;4363789;32;12443;-79
2021/01/06 00:18:24;;;;;;;;;21.50;21.00;;;;;5.54;70.87;101616.69;4374895;32;12422;-79
2021/01/06 00:21:23;;;;;;;;;20.00;20.00;;;;;5.53;70.95;101620.53;4374606;32;12491;-79
2021/01/06 00:24:20;;;;;;;;;25.00;23.50;;;;;5.64;70.64;101633.16;4372128;32;12403;-79
2021/01/06 00:27:16;;;;;;;;;23.75;22.50;;;;;5.43;71.17;101604.88;4372016;32;12457;-79
2021/01/06 00:30:31;;;;;;;;;26.25;26.25;;;;;5.59;71.07;101602.97;4375280;32;12593;-79
2021/01/06 00:32:59;;;;;;;;;21.25;21.25;;;;;5.60;71.02;101612.87;4376160;32;13132;-79
2021/01/06 00:36:10;;;;;;;;;27.75;26.75;;;;;5.46;71.21;101609.84;4374838;32;12414;-79
2021/01/06 00:39:06;;;;;;;;;24.75;24.50;;;;;5.47;71.30;101607.91;4374656;32;12572;-78
2021/01/06 00:42:02;;;;;;;;;22.50;22.50;;;;;5.61;71.08;101602.72;4366603;32;12432;-79
2021/01/06 00:45:03;;;;;;;;;22.75;21.50;;;;;5.65;70.94;101606.53;4360972;32;12588;-79
2021/01/06 00:48:01;;;;;;;;;25.75;23.50;;;;;5.57;71.06;101610.66;4374919;32;13185;-79
2021/01/06 00:50:59;;;;;;;;;31.75;27.00;;;;;5.49;71.02;101619.44;4374317;32;12487;-79
2021/01/06 00:53:55;;;;;;;;;23.25;23.00;;;;;5.51;71.22;101614.47;4373436;32;12413;-79
2021/01/06 00:56:32;;;;;;;;;22.75;22.25;;;;;5.58;71.08;101618.59;4361888;32;12405;-78
2021/01/06 00:59:30;;;;;;;;;29.00;27.00;;;;;5.69;70.83;101629.59;4361396;32;12489;-79
2021/01/06 01:02:26;;;;;;;;;22.00;22.00;;;;;5.65;70.93;101614.75;4358959;32;12435;-79
2021/01/06 01:05:09;;;;;;;;;26.75;26.75;;;;;5.66;70.98;101619.97;4369964;32;12543;-79
2021/01/06 01:08:09;;;;;;;;;24.50;24.50;;;;;5.72;70.84;101613.37;4362152;32;12425;-79
2021/01/06 01:11:10;;;;;;;;;1.25;0.50;;;;;5.77;70.75;101615.31;4360380;32;12464;-79
2021/01/06 01:14:12;;;;;;;;;23.75;23.75;;;;;5.72;70.78;101618.88;4360256;32;12342;-79
2021/01/06 01:17:18;;;;;;;;;24.25;22.25;;;;;5.81;70.54;101625.44;4358725;32;12643;-79
2021/01/06 01:20:16;;;;;;;;;28.00;27.25;;;;;5.80;70.62;101621.06;4359170;32;12414;-79
2021/01/06 01:26:39;;;;;;;;;27.00;27.00;;;;;5.81;70.79;101630.13;4358673;33;12383;-78
2021/01/06 01:29:20;;;;;;;;;21.50;21.50;;;;;5.78;70.62;101628.75;4359877;32;12479;-79
2021/01/06 01:32:16;;;;;;;;;25.00;24.50;;;;;5.66;71.30;101627.38;4372085;32;12464;-79
2021/01/06 01:34:45;;;;;;;;;29.75;28.50;;;;;5.79;70.61;101635.06;4374836;32;12545;-79
2021/01/06 01:37:45;;;;;;;;;22.00;22.00;;;;;5.67;71.27;101626.28;4373273;32;12408;-79
2021/01/06 01:40:41;;;;;;;;;23.75;23.75;;;;;5.87;70.76;101627.09;4373360;32;12601;-79
2021/01/06 01:43:39;;;;;;;;;25.50;25.50;;;;;5.77;71.10;101624.38;4373350;32;12399;-78
2021/01/06 01:46:07;;;;;;;;;28.50;26.25;;;;;5.77;70.90;101621.62;4374450;32;12409;-79
2021/01/06 01:48:51;;;;;;;;;23.75;23.75;;;;;5.71;71.25;101622.72;4374135;32;12613;-78
2021/01/06 01:51:57;;;;;;;;;25.00;23.75;;;;;5.67;71.34;101626.28;4361756;32;12410;-79
2021/01/06 01:54:27;;;;;;;;;27.25;26.50;;;;;5.74;71.23;101624.91;4360289;32;12407;-79
2021/01/06 01:57:29;;;;;;;;;2.00;0.00;;;;;5.86;70.94;101625.44;4358600;32;12460;-79
2021/01/06 02:00:30;;;;;;;;;27.25;24.50;;;;;5.87;70.92;101631.75;4359001;32;13107;-79
2021/01/06 02:06:59;;;;;;;;;28.00;25.75;;;;;5.87;71.01;101629.84;4357656;32;13095;-79
2021/01/06 02:10:07;;;;;;;;;24.75;24.75;;;;;5.82;71.01;101621.59;4358977;32;12464;-79
2021/01/06 02:13:42;;;;;;;;;24.50;24.50;;;;;5.86;70.94;101617.22;4348896;33;12509;-78
2021/01/06 02:16:59;;;;;;;;;27.00;26.50;;;;;5.71;71.64;101622.72;4359228;32;12570;-79
2021/01/06 02:20:14;;;;;;;;;32.75;30.50;;;;;5.82;71.21;101623.53;4359032;32;12422;-78
2021/01/06 02:22:24;;;;;;;;;33.00;30.00;;;;;5.87;71.31;101620.78;4364614;32;12434;-78
2021/01/06 02:25:23;;;;;;;;;25.25;21.25;;;;;5.87;71.29;101624.34;4374199;32;12422;-79
2021/01/06 02:28:13;;;;;;;;;32.50;30.25;;;;;5.57;72.29;101613.41;4373681;32;12652;-79
2021/01/06 02:31:10;;;;;;;;;32.25;32.25;;;;;5.79;71.73;101618.59;4366531;32;12476;-79
2021/01/06 02:34:11;;;;;;;;;31.75;30.25;;;;;5.69;72.02;101619.44;4358021;32;12408;-78
2021/01/06 02:37:02;;;;;;;;;12.00;12.00;;;;;5.65;72.06;101617.50;4359793;32;12394;-79
2021/01/06 02:39:32;;;;;;;;;26.00;21.25;;;;;5.75;72.05;101614.75;4358967;32;12417;-78
2021/01/06 02:42:29;;;;;;;;;25.50;25.00;;;;;5.58;72.34;101609.53;4358181;32;12622;-78
2021/01/06 02:45:25;;;;;;;;;26.00;24.25;;;;;5.63;72.31;101608.72;4357822;32;12517;-78
2021/01/06 02:48:23;;;;;;;;;25.00;24.75;;;;;5.75;72.08;101614.75;4356884;33;12471;-78
2021/01/06 02:51:27;;;;;;;;;23.75;23.75;;;;;5.85;71.87;101610.09;4358210;32;12479;-79
2021/01/06 02:54:36;;;;;;;;;17.25;17.25;;;;;6.00;71.45;101602.97;4358358;32;12477;-79
2021/01/06 02:57:34;;;;;;;;;27.25;24.50;;;;;6.02;71.41;101598.81;4358635;32;12614;-79
2021/01/06 03:00:34;;;;;;;;;32.75;30.75;;;;;6.02;71.33;101607.06;4357629;32;12412;-79
2021/01/06 03:03:33;;;;;;;;;23.00;22.50;;;;;6.08;70.83;101610.63;4372759;32;12469;-79
2021/01/06 03:06:45;;;;;;;;;28.50;24.75;;;;;6.05;71.24;101614.72;4372369;32;12382;-79
2021/01/06 03:09:41;;;;;;;;;21.75;21.25;;;;;6.00;71.34;101605.69;4373685;32;12539;-79
2021/01/06 03:12:43;;;;;;;;;22.25;22.25;;;;;6.18;70.80;101618.00;4372207;32;12507;-79
2021/01/06 03:15:51;;;;;;;;;21.50;21.50;;;;;6.25;70.54;101619.38;4368727;32;12444;-79
2021/01/06 03:18:48;;;;;;;;;26.25;22.50;;;;;6.18;70.91;101609.78;4365537;32;12423;-78
2021/01/06 03:21:42;;;;;;;;;18.75;18.75;;;;;6.21;70.89;101617.44;4357870;33;12441;-79
2021/01/06 03:24:30;;;;;;;;;21.75;21.75;;;;;6.17;70.99;101614.44;4358285;32;12401;-79
2021/01/06 03:27:30;;;;;;;;;31.25;28.50;;;;;6.19;71.05;101625.97;4358158;32;12464;-79
2021/01/06 03:30:30;;;;;;;;;22.25;22.25;;;;;6.22;71.01;101633.66;4369298;32;12505;-78
2021/01/06 03:33:43;;;;;;;;;29.50;29.50;;;;;6.22;71.03;101641.09;4357597;32;12512;-79
2021/01/06 03:36:44;;;;;;;;;26.50;26.50;;;;;6.18;71.31;101638.06;4369023;32;12429;-78
2021/01/06 03:39:52;;;;;;;;;46.50;42.50;;;;;6.24;71.30;101645.19;4372138;32;12473;-79
2021/01/06 03:42:48;;;;;;;;;35.75;34.75;;;;;6.20;71.40;101644.09;4364528;32;12450;-79
2021/01/06 03:45:49;;;;;;;;;36.00;36.00;;;;;6.17;71.73;101643.84;4357467;33;12442;-79
2021/01/06 03:48:28;;;;;;;;;31.75;29.75;;;;;6.35;71.23;101643.22;4358426;33;12504;-79
2021/01/06 03:51:28;;;;;;;;;46.50;43.50;;;;;6.36;71.11;101651.22;4357253;32;12414;-79
2021/01/06 03:54:59;;;;;;;;;49.25;43.00;;;;;6.42;71.02;101654.75;4368039;32;12463;-79
2021/01/06 03:58:03;;;;;;;;;46.25;41.25;;;;;6.34;71.33;101656.16;4372391;32;12476;-79
2021/01/06 04:01:26;;;;;;;;;28.75;28.50;;;;;6.35;71.46;101654.22;4372101;32;13143;-78
2021/01/06 04:04:49;;;;;;;;;48.00;44.00;;;;;6.39;71.29;101658.88;4327799;32;13118;-79
2021/01/06 04:07:53;;;;;;;;;54.75;46.50;;;;;6.43;71.21;101670.13;4356942;33;13139;-79
2021/01/06 04:10:29;;;;;;;;;34.75;33.25;;;;;6.45;71.13;101669.88;4367461;32;12487;-79
2021/01/06 04:13:29;;;;;;;;;31.00;30.25;;;;;6.32;71.76;101668.53;4366129;32;13075;-79
2021/01/06 04:16:25;;;;;;;;;70.00;58.33;;;;;6.35;71.66;101670.69;4369306;32;12452;-79
2021/01/06 04:22:57;;;;;;;;;69.75;58.25;;;;;6.38;71.83;101673.72;4387145;32;12413;-79
2021/01/06 04:25:52;;;;;;;;;81.33;66.00;;;;;6.44;71.85;101673.69;4360683;32;12544;-78
2021/01/06 04:28:32;;;;;;;;;82.33;67.00;;;;;6.52;71.79;101673.16;4357621;32;8925;-79
2021/01/06 04:31:49;;;;;;;;;72.75;59.00;;;;;6.57;71.97;101673.94;4367509;32;8949;-79
2021/01/06 04:34:51;;;;;;;;;51.00;45.50;;;;;6.46;72.46;101677.84;4374075;32;12481;-79
2021/01/06 04:37:48;;;;;;;;;28.00;27.25;;;;;6.56;72.49;101680.53;4375131;32;12427;-79
2021/01/06 04:40:49;;;;;;;;;30.25;27.75;;;;;6.57;72.59;101689.59;4374720;32;12467;-79
2021/01/06 04:44:24;;;;;;;;;22.50;20.00;;;;;6.52;72.91;101695.97;4374836;32;12456;-79
2021/01/06 04:47:37;;;;;;;;;32.50;32.50;;;;;6.46;73.59;101697.06;4377816;32;12461;-78
2021/01/06 04:50:52;;;;;;;;;28.00;28.00;;;;;6.44;73.28;101699.28;4360568;32;12437;-78
2021/01/06 04:54:16;;;;;;;;;32.00;29.75;;;;;6.43;73.59;101699.53;4371746;32;12553;-78
2021/01/06 04:57:30;;;;;;;;;33.75;31.25;;;;;6.54;73.27;101707.50;4366953;32;12455;-78
2021/01/06 05:00:33;;;;;;;;;36.25;32.75;;;;;6.43;74.00;101708.59;4363473;32;12425;-74
2021/01/06 05:03:36;;;;;;;;;35.00;33.00;;;;;6.39;74.28;101702.84;4360386;32;13126;-74
2021/01/06 05:06:49;;;;;;;;;30.50;29.50;;;;;6.45;73.97;101702.84;4371165;32;12482;-74
2021/01/06 05:09:56;;;;;;;;;36.00;32.00;;;;;6.55;73.79;101700.88;4375239;32;12478;-74
2021/01/06 05:12:37;;;;;;;;;39.00;37.25;;;;;6.59;73.76;101712.13;4375866;32;12379;-74
2021/01/06 05:15:38;;;;;;;;;34.50;31.00;;;;;6.48;74.02;101705.84;4350419;32;12452;-74
2021/01/06 05:18:34;;;;;;;;;36.50;35.50;;;;;6.41;74.68;101702.56;4350036;33;12424;-74
2021/01/06 05:21:20;;;;;;;;;37.75;37.25;;;;;6.56;74.28;101698.97;4351981;32;12410;-74
2021/01/06 05:24:25;;;;;;;;;43.25;41.00;;;;;6.59;74.17;101703.88;4375098;32;12423;-73
2021/01/06 05:27:26;;;;;;;;;17.00;13.25;;;;;6.66;73.95;101709.91;4374807;32;12500;-74
2021/01/06 05:30:28;;;;;;;;;35.50;35.50;;;;;6.57;74.33;101723.41;4367381;32;12441;-73
2021/01/06 05:33:34;;;;;;;;;38.50;37.25;;;;;6.60;74.20;101722.88;4366726;32;12452;-73
2021/01/06 05:36:31;;;;;;;;;36.75;35.00;;;;;6.61;74.05;101718.19;4373788;32;13062;-74
2021/01/06 05:39:28;;;;;;;;;40.50;36.50;;;;;6.67;74.18;101730.81;4373872;32;12417;-73
2021/01/06 05:42:27;;;;;;;;;42.00;36.75;;;;;6.53;74.83;101727.84;4362751;32;12469;-74
2021/01/06 05:45:04;;;;;;;;;6.00;2.75;;;;;6.67;74.48;101731.66;4375337;32;12477;-74
2021/01/06 05:48:16;;;;;;;;;34.75;33.25;;;;;6.64;74.56;101734.94;4360995;32;12435;-74
2021/01/06 05:51:24;;;;;;;;;43.50;36.00;;;;;6.68;74.50;101743.47;4360329;32;12464;-74
2021/01/06 05:54:25;;;;;;;;;39.75;37.00;;;;;6.76;74.12;101747.56;4380692;32;12437;-73
2021/01/06 05:57:41;;;;;;;;;41.00;39.50;;;;;6.75;74.10;101737.66;4384890;32;12386;-73
2021/01/06 06:00:45;;;;;;;;;39.75;34.50;;;;;6.75;74.22;101746.75;4375254;32;12398;-73
2021/01/06 06:03:28;;;;;;;;;40.50;35.50;;;;;6.72;74.44;101736.28;4362190;32;12721;-73
2021/01/06 06:05:59;;;;;;;;;48.00;38.75;;;;;6.75;74.46;101748.66;4375446;32;12424;-73
2021/01/06 06:08:50;;;;;;;;;33.50;33.25;;;;;6.72;74.77;101749.22;4360209;32;12362;-74
2021/01/06 06:12:07;;;;;;;;;36.50;36.50;;;;;6.84;74.27;101756.06;4359287;32;12429;-74
2021/01/06 06:15:15;;;;;;;;;38.00;36.75;;;;;6.79;74.57;101767.06;4365018;32;12434;-74
2021/01/06 06:18:02;;;;;;;;;55.25;42.25;;;;;6.73;75.04;101770.09;4376954;32;12447;-74
2021/01/06 06:21:05;;;;;;;;;24.75;23.25;;;;;6.67;75.58;101761.91;4386163;32;12350;-75
2021/01/06 06:24:04;;;;;;;;;31.25;28.75;;;;;6.69;75.57;101773.44;4378908;32;12383;-74
2021/01/06 06:27:13;;;;;;;;;42.50;39.75;;;;;6.76;75.51;101764.91;4365645;32;12414;-74
2021/01/06 06:30:19;;;;;;;;;45.50;42.50;;;;;6.83;75.54;101776.44;4373685;32;12475;-74
2021/01/06 06:33:20;;;;;;;;;42.25;36.75;;;;;6.73;75.99;101768.19;4382244;32;12396;-73
2021/01/06 06:35:49;;;;;;;;;58.00;45.00;;;;;6.75;76.01;101766.00;4347713;32;12503;-74
2021/01/06 06:38:47;;;;;;;;;36.75;34.00;;;;;6.73;76.26;101765.44;4351877;32;12437;-75
2021/01/06 06:41:43;;;;;;;;;45.75;41.25;;;;;6.84;76.12;101767.06;4360150;32;13126;-74
2021/01/06 06:44:57;;;;;;;;;48.75;39.00;;;;;6.74;76.48;101761.56;4358436;32;12499;-74
2021/01/06 06:48:01;;;;;;;;;43.50;41.00;;;;;6.81;76.63;101761.28;4348537;32;12701;-74
2021/01/06 06:51:09;;;;;;;;;55.00;46.00;;;;;7.00;76.17;101756.84;4346885;33;12438;-74
2021/01/06 06:53:49;;;;;;;;;65.00;51.75;;;;;6.79;77.18;101769.81;4357788;32;12568;-75
2021/01/06 06:56:57;;;;;;;;;56.25;47.50;;;;;6.94;76.81;101758.78;4348674;32;12428;-74
2021/01/06 06:59:56;;;;;;;;;48.75;41.75;;;;;7.05;76.45;101777.97;4359035;32;12481;-74
2021/01/06 07:03:00;;;;;;;;;57.75;46.00;;;;;7.04;76.73;101771.66;4357299;33;12433;-75
2021/01/06 07:06:00;;;;;;;;;57.25;49.25;;;;;7.13;76.62;101767.25;4357188;33;12406;-76
2021/01/06 07:08:59;;;;;;;;;44.00;41.50;;;;;7.17;76.59;101775.75;4357089;32;12439;-74
2021/01/06 07:12:01;;;;;;;;;33.75;33.25;;;;;7.13;77.03;101763.66;4347216;33;12434;-75
2021/01/06 07:14:58;;;;;;;;;50.50;43.50;;;;;7.17;77.07;101771.06;4358191;32;12495;-75
2021/01/06 07:17:53;;;;;;;;;42.25;37.75;;;;;7.19;77.07;101768.03;4357350;32;12665;-74
2021/01/06 07:21:06;;;;;;;;;40.00;38.00;;;;;7.30;76.70;101777.06;4358371;32;12440;-75
2021/01/06 07:23:59;;;;;;;;;41.00;38.00;;;;;7.34;76.54;101781.72;4348468;32;12452;-74
2021/01/06 07:26:33;;;;;;;;;39.25;37.75;;;;;7.43;76.40;101774.50;4344545;33;12478;-74
2021/01/06 07:29:03;;;;;;;;;43.50;41.00;;;;;7.24;77.13;101779.03;4345014;33;12432;-74
2021/01/06 07:31:39;;;;;;;;;37.00;35.00;;;;;7.38;76.65;101785.56;4358767;32;12456;-74
2021/01/06 07:34:18;;;;;;;;;40.25;35.50;;;;;7.46;76.34;101778.66;4357962;33;13131;-74
2021/01/06 07:37:47;;;;;;;;;39.50;36.75;;;;;7.55;76.17;101784.38;4347619;33;12504;-74
2021/01/06 07:40:45;;;;;;;;;33.00;32.25;;;;;7.53;76.17;101785.47;4357726;32;12504;-75
2021/01/06 07:43:23;;;;;;;;;35.00;34.25;;;;;7.64;76.23;101783.47;4359649;33;12411;-74
2021/01/06 07:45:59;;;;;;;;;43.25;40.25;;;;;7.63;76.04;101792.03;4359745;33;12642;-74
2021/01/06 07:49:08;;;;;;;;;43.75;39.75;;;;;7.75;75.64;101793.34;4349204;33;12508;-74
2021/01/06 07:52:43;;;;;;;;;42.50;38.25;;;;;7.81;75.75;101791.34;4346989;33;12439;-73
2021/01/06 07:55:45;;;;;;;;;44.50;39.25;;;;;7.79;75.59;101793.59;4358231;33;12438;-74
2021/01/06 07:58:40;;;;;;;;;61.75;48.50;;;;;7.83;75.34;101800.19;4357731;33;12432;-74
2021/01/06 08:01:54;;;;;;;;;58.25;45.00;;;;;7.91;75.22;101790.50;4357588;33;12472;-75
2021/01/06 08:04:55;;;;;;;;;42.75;40.00;;;;;7.90;75.48;101800.69;4359139;32;12611;-75
2021/01/06 08:08:15;;;;;;;;;47.50;38.50;;;;;7.76;75.56;101807.94;4349867;33;12468;-75
2021/01/06 08:11:15;;;;;;;;;50.25;42.50;;;;;7.93;75.20;101810.28;4351045;33;13071;-74
2021/01/06 08:13:48;;;;;;;;;52.25;42.50;;;;;7.90;75.08;101806.19;4360944;32;12450;-74
2021/01/06 08:16:51;;;;;;;;;47.00;39.00;;;;;8.05;74.97;101814.34;4351222;32;12457;-74
2021/01/06 08:19:59;;;;;;;;;35.25;35.25;;;;;7.83;75.70;101811.19;4360419;32;12538;-74
2021/01/06 08:22:53;;;;;;;;;40.50;35.25;;;;;8.03;75.03;101813.78;4347826;33;12489;-75
2021/01/06 08:26:14;;;;;;;;;52.25;40.75;;;;;7.94;75.69;101815.50;4360271;32;12468;-75
2021/01/06 08:28:43;;;;;;;;;33.75;32.25;;;;;8.11;74.86;101817.88;4361847;32;12524;-75
2021/01/06 08:31:39;;;;;;;;;32.50;31.75;;;;;8.05;75.25;101813.50;4360860;32;12521;-74
2021/01/06 08:34:17;;;;;;;;;33.00;33.00;;;;;8.03;75.43;101816.56;4349070;32;12753;-74
2021/01/06 08:36:54;;;;;;;;;32.50;31.00;;;;;8.09;75.28;101809.91;4361815;32;12485;-75
2021/01/06 08:39:23;;;;;;;;;37.25;34.00;;;;;8.13;75.01;101804.66;4347895;33;12459;-75
2021/01/06 08:42:19;;;;;;;;;38.25;35.00;;;;;8.16;75.27;101811.50;4360364;32;12421;-75
2021/01/06 08:44:59;;;;;;;;;32.25;32.00;;;;;8.26;74.94;101814.19;4348853;32;12632;-75
2021/01/06 08:47:56;;;;;;;;;32.75;32.50;;;;;8.36;74.70;101808.62;4360534;32;12571;-75
2021/01/06 08:50:38;;;;;;;;;34.00;31.50;;;;;8.09;75.99;101804.38;4361195;32;12417;-74
2021/01/06 08:53:37;;;;;;;;;40.50;37.75;;;;;8.28;75.32;101803.69;4358646;33;12422;-75
2021/01/06 08:56:09;;;;;;;;;27.50;26.75;;;;;8.34;75.25;101805.28;4361487;32;12434;-75
2021/01/06 08:58:47;;;;;;;;;38.00;35.00;;;;;8.41;75.15;101799.47;4361326;32;12408;-75
2021/01/06 09:01:47;;;;;;;;;28.50;26.25;;;;;8.57;74.71;101801.81;4335333;33;12506;-74
2021/01/06 09:04:45;;;;;;;;;27.00;27.00;;;;;8.43;75.18;101800.81;4361731;32;12736;-74
2021/01/06 09:07:22;;;;;;;;;23.50;21.75;;;;;8.46;75.25;101805.78;4348197;32;13098;-74
2021/01/06 09:09:57;;;;;;;;;28.50;28.50;;;;;8.66;74.85;101799.22;4346306;33;12584;-74
2021/01/06 09:13:03;;;;;;;;;33.50;32.75;;;;;8.61;74.78;101786.34;4359849;32;12502;-74
2021/01/06 09:16:28;;;;;;;;;28.50;28.50;;;;;8.74;74.17;101801.38;4350205;33;12629;-74
2021/01/06 09:19:06;;;;;;;;;31.25;30.25;;;;;8.78;74.13;101810.69;4359859;32;12408;-75
2021/01/06 09:22:03;;;;;;;;;27.00;27.00;;;;;8.81;74.32;101804.59;4360182;32;12448;-74
2021/01/06 09:24:59;;;;;;;;;29.25;29.25;;;;;8.84;74.08;101803.19;4358739;33;12430;-74
2021/01/06 09:28:00;;;;;;;;;25.25;24.50;;;;;8.77;74.19;101811.00;4359623;32;13121;-75
2021/01/06 09:30:56;;;;;;;;;25.75;25.00;;;;;8.88;73.83;101810.59;4360055;32;13116;-75
2021/01/06 09:33:52;;;;;;;;;19.75;19.75;;;;;8.81;74.25;101804.59;4358679;33;12492;-74
2021/01/06 09:36:50;;;;;;;;;24.25;24.00;;;;;8.79;74.30;101800.50;4359561;32;12404;-74
2021/01/06 09:39:47;;;;;;;;;34.25;33.50;;;;;8.90;74.13;101791.00;4359230;32;12459;-73
2021/01/06 09:42:49;;;;;;;;;34.00;31.75;;;;;9.08;73.83;101798.50;4350071;32;12433;-74
2021/01/06 09:45:45;;;;;;;;;28.50;26.00;;;;;9.04;73.79;101796.63;4349323;33;12522;-74
2021/01/06 09:48:15;;;;;;;;;28.75;27.00;;;;;9.08;73.86;101798.50;4360620;32;12505;-75
2021/01/06 09:51:12;;;;;;;;;25.50;25.50;;;;;9.13;73.94;101797.66;4358583;32;12514;-75
2021/01/06 09:53:42;;;;;;;;;34.25;33.25;;;;;9.13;74.16;101801.22;4359144;32;12564;-75
2021/01/06 09:56:38;;;;;;;;;29.75;29.25;;;;;9.22;74.06;101795.06;4358376;33;12531;-75
2021/01/06 09:59:36;;;;;;;;;30.75;30.75;;;;;8.85;75.55;101789.13;4358890;32;12380;-75
2021/01/06 10:02:35;;;;;;;;;29.50;29.00;;;;;8.94;75.84;101794.00;4366912;32;12464;-75
2021/01/06 10:05:34;;;;;;;;;41.00;35.75;;;;;9.08;75.37;101793.00;4360207;32;12514;-75
2021/01/06 10:08:24;;;;;;;;;33.75;32.50;;;;;9.03;75.88;101784.75;4347961;32;12413;-75
2021/01/06 10:11:25;;;;;;;;;29.50;29.50;;;;;9.05;75.90;101787.25;4358656;32;12511;-75
2021/01/06 10:14:27;;;;;;;;;37.00;34.50;;;;;9.14;75.75;101786.31;4358314;32;12426;-75
2021/01/06 10:17:28;;;;;;;;;24.75;24.75;;;;;9.15;76.05;101784.38;4339988;33;13145;-75
2021/01/06 10:19:55;;;;;;;;;33.75;29.75;;;;;9.10;76.31;101782.47;4359380;32;13145;-75
2021/01/06 10:23:00;;;;;;;;;31.75;31.75;;;;;9.08;76.33;101784.72;4348280;33;12619;-75
2021/01/06 10:26:14;;;;;;;;;28.75;27.25;;;;;9.26;75.83;101785.87;4358307;32;12438;-75
2021/01/06 10:28:47;;;;;;;;;30.25;29.75;;;;;9.32;75.65;101779.16;4358531;33;12418;-74
2021/01/06 10:32:11;;;;;;;;;18.00;18.00;;;;;9.32;75.51;101772.81;4359346;32;12461;-74
2021/01/06 10:35:32;;;;;;;;;38.75;33.25;;;;;9.29;75.55;101776.19;4357686;32;12396;-75
2021/01/06 10:38:29;;;;;;;;;33.00;33.00;;;;;9.23;75.76;101777.38;4349039;32;12463;-75
2021/01/06 10:41:25;;;;;;;;;38.25;33.00;;;;;9.26;75.56;101769.31;4359954;32;12571;-75
2021/01/06 10:44:31;;;;;;;;;35.00;33.75;;;;;9.24;76.17;101779.81;4359900;32;12461;-75
2021/01/06 10:47:30;;;;;;;;;31.00;31.00;;;;;9.33;75.85;101766.19;4357594;33;12472;-75
2021/01/06 10:50:29;;;;;;;;;29.00;27.50;;;;;9.39;75.41;101770.53;4358276;32;12384;-74
2021/01/06 10:53:28;;;;;;;;;30.50;28.25;;;;;9.36;75.44;101765.59;4347377;33;12411;-75
2021/01/06 10:56:30;;;;;;;;;29.25;29.25;;;;;9.42;75.47;101773.50;4347928;33;13038;-75
2021/01/06 10:59:05;;;;;;;;;34.75;33.00;;;;;9.42;75.38;101770.75;4359528;32;12562;-75
2021/01/06 11:02:20;;;;;;;;;34.25;33.25;;;;;9.50;75.29;101772.00;4347578;33;12459;-75
2021/01/06 11:04:53;;;;;;;;;38.75;36.75;;;;;9.63;75.08;101776.81;4357325;32;12455;-74
2021/01/06 11:08:16;;;;;;;;;33.75;31.50;;;;;9.70;75.04;101770.91;4346083;33;12409;-74
2021/01/06 11:11:24;;;;;;;;;24.25;23.75;;;;;9.77;75.04;101776.91;4348106;33;12520;-74
2021/01/06 11:15:03;;;;;;;;;31.00;29.50;;;;;9.76;75.45;101791.84;4348581;32;12440;-74
2021/01/06 11:18:14;;;;;;;;;35.75;33.75;;;;;9.84;75.21;101782.87;4360945;32;12438;-75
2021/01/06 11:20:49;;;;;;;;;36.00;34.25;;;;;9.89;75.15;101782.81;4346283;33;12522;-75
2021/01/06 11:23:50;;;;;;;;;36.25;34.75;;;;;9.90;75.19;101783.63;4357245;33;12380;-76
2021/01/06 11:26:49;;;;;;;;;36.25;36.25;;;;;9.95;74.98;101789.03;4357710;32;12452;-75
2021/01/06 11:29:21;;;;;;;;;32.50;30.25;;;;;9.89;75.25;101795.75;4359346;32;12525;-74
2021/01/06 11:31:50;;;;;;;;;37.00;35.75;;;;;9.89;75.38;101804.91;4346831;32;12391;-75
2021/01/06 11:34:52;;;;;;;;;30.50;28.00;;;;;10.08;74.81;101799.34;4347907;33;12492;-76
2021/01/06 11:37:48;;;;;;;;;24.75;24.75;;;;;9.98;74.95;101794.81;4358135;32;12414;-74
2021/01/06 11:40:28;;;;;;;;;34.00;32.75;;;;;9.97;75.11;101784.06;4358718;33;12363;-75
2021/01/06 11:43:21;;;;;;;;;31.75;31.75;;;;;10.09;74.60;101786.34;4359305;33;12519;-75
2021/01/06 11:45:51;;;;;;;;;35.75;34.25;;;;;10.30;73.91;101791.28;4345993;33;12354;-76
2021/01/06 11:48:31;;;;;;;;;34.50;32.50;;;;;10.34;73.39;101785.94;4345833;33;12356;-75
2021/01/06 11:51:17;;;;;;;;;26.25;25.75;;;;;10.40;73.17;101792.22;4346007;33;12496;-76
2021/01/06 11:54:22;;;;;;;;;31.50;28.50;;;;;10.42;73.00;101795.50;4357996;33;12430;-75
2021/01/06 11:57:21;;;;;;;;;20.25;19.25;;;;;10.39;73.20;101790.59;4348468;33;12556;-75
2021/01/06 12:00:22;;;;;;;;;32.50;32.50;;;;;10.56;72.88;101788.88;4358049;33;12501;-75
2021/01/06 12:03:02;;;;;;;;;31.75;31.75;;;;;10.70;72.58;101791.69;4359147;33;12386;-75
2021/01/06 12:05:35;;;;;;;;;26.25;25.75;;;;;10.89;72.16;101796.31;4370128;32;12393;-74
2021/01/06 12:09:05;;;;;;;;;29.00;27.75;;;;;11.10;71.94;101797.56;4347452;33;12116;-74
2021/01/06 12:11:48;;;;;;;;;28.00;28.00;;;;;11.38;70.94;101793.66;4358285;33;11988;-75
2021/01/06 12:15:18;;;;;;;;;29.75;29.75;;;;;11.43;69.95;101803.00;4358531;33;12120;-76
2021/01/06 12:18:26;;;;;;;;;26.75;26.75;;;;;11.74;69.65;101800.38;4357880;33;12370;-76
2021/01/06 12:21:34;;;;;;;;;24.00;23.75;;;;;11.63;68.70;101799.75;4358441;32;12085;-78
2021/01/06 12:24:30;;;;;;;;;25.00;25.00;;;;;11.35;69.55;101812.84;4357295;33;11854;-76
2021/01/06 12:27:03;;;;;;;;;24.00;24.00;;;;;11.31;70.00;101812.63;4359680;33;12091;-77
2021/01/06 12:30:46;;;;;;;;;21.25;20.75;;;;;11.27;70.10;101819.09;4358739;33;11976;-76
2021/01/06 12:33:23;;;;;;;;;46.75;40.75;;;;;11.33;69.98;101817.84;4364719;32;11706;-76
2021/01/06 12:36:21;;;;;;;;;25.75;25.25;;;;;11.33;69.83;101813.13;4357607;33;12619;-74
2021/01/06 12:39:29;;;;;;;;;20.25;20.00;;;;;11.21;70.12;101812.84;4358113;33;12080;-75
2021/01/06 12:42:40;;;;;;;;;24.00;23.50;;;;;11.29;70.08;101811.31;4348003;33;12417;-75
2021/01/06 12:45:43;;;;;;;;;27.25;27.25;;;;;11.27;69.77;101816.31;4346559;33;11589;-74
2021/01/06 12:48:49;;;;;;;;;23.75;23.75;;;;;11.10;70.40;101814.16;4357972;33;12820;-74
2021/01/06 12:51:22;;;;;;;;;21.25;21.00;;;;;11.16;70.05;101810.16;4361467;32;11978;-74
2021/01/06 12:54:19;;;;;;;;;21.00;21.00;;;;;11.14;70.18;101809.66;4350408;32;12614;-75
2021/01/06 12:57:04;;;;;;;;;21.75;20.25;;;;;11.20;70.07;101813.97;4347275;33;11935;-74
2021/01/06 13:00:13;;;;;;;;;20.25;20.25;;;;;11.16;70.28;101818.47;4360287;32;11835;-75
2021/01/06 13:03:36;;;;;;;;;25.50;25.50;;;;;11.11;70.33;101813.84;4358857;33;11786;-74
2021/01/06 13:06:11;;;;;;;;;32.50;32.50;;;;;11.18;70.15;101810.69;4360437;32;11853;-75
2021/01/06 13:09:13;;;;;;;;;18.50;18.50;;;;;11.21;70.00;101821.16;4349478;33;11956;-76
2021/01/06 13:12:21;;;;;;;;;31.00;30.75;;;;;11.18;70.16;101815.41;4350337;32;11796;-75
2021/01/06 13:15:27;;;;;;;;;27.75;27.75;;;;;11.06;70.44;101815.91;4350169;32;12465;-75
2021/01/06 13:18:45;;;;;;;;;22.50;21.75;;;;;11.07;70.49;101823.09;4359873;32;11853;-75
2021/01/06 13:21:25;;;;;;;;;22.00;21.25;;;;;10.91;70.91;101830.06;4360413;32;11972;-74
2021/01/06 13:24:28;;;;;;;;;24.00;24.00;;;;;11.09;70.34;101829.13;4358785;33;11813;-74
2021/01/06 13:28:05;;;;;;;;;21.25;21.25;;;;;11.03;70.37;101822.06;4358955;32;12441;-75
2021/01/06 13:31:22;;;;;;;;;23.50;23.50;;;;;11.02;70.44;101831.50;4350182;32;11701;-75
2021/01/06 13:34:33;;;;;;;;;25.75;23.25;;;;;11.04;70.25;101826.47;4360062;32;12036;-75
2021/01/06 13:37:35;;;;;;;;;26.25;25.50;;;;;10.97;70.41;101832.41;4360076;32;11917;-74
2021/01/06 13:40:33;;;;;;;;;25.00;25.00;;;;;10.96;70.32;101830.75;4348282;33;12259;-75
2021/01/06 13:43:40;;;;;;;;;28.50;27.50;;;;;10.90;70.41;101842.25;4350960;32;12062;-75
2021/01/06 13:46:35;;;;;;;;;35.50;35.50;;;;;10.93;70.12;101841.62;4360139;32;12493;-75